Flight Track Log - Related Links

Times and Time Zones

All times are in EDT time to prevent confusion due to time zone crossing. See the N1764J flight status page for this flight to view local times or setup timezone preferences in your user account.

Time Position Orientation Groundspeed Altitude Reporting Facility
EDT Latitude Longitude Course Direction KTS MPH feet Rate Location/Type
Thu 06:24:23 PM 35.2814 -78.0678 259° West 99 114 4,400  Level Washington Center
Thu 06:25:21 PM 35.2764 -78.1006 259° West 100 115 4,400 51 Level Washington Center
Thu 06:26:21 PM 35.2717 -78.1336 260° West 101 116 4,500 50 Climbing Washington Center
Thu 06:27:22 PM 35.2644 -78.1689 256° West 101 116 4,500 -49 Level Washington Center
Thu 06:28:23 PM 35.2617 -78.2094 265° West 102 117 4,400  Descending Washington Center
Thu 06:29:30 PM 35.2547 -78.2397 254° West 100 115 4,500 94 Climbing Washington Center
Thu 06:30:31 PM 35.2497 -78.2778 261° West 106 122 4,600  Climbing Washington Center
Thu 06:31:38 PM 35.2467 -78.3183 265° West 104 120 4,500 -47 Descending Washington Center
Thu 06:32:39 PM 35.2481 -78.3489 273° West 96 110 4,500  Level Washington Center
Thu 06:33:28 PM 35.2411 -78.3767 253° West 102 117 4,500  Level Washington Center
Thu 06:35:00 PM 35.2068 -78.4658 245° Southwest  Level FlightAware Approximate
Thu 06:42:00 PM 35.1162 -78.9047 256° West  Level FlightAware Approximate
Thu 06:43:00 PM 35.1037 -78.9671 256° West  Level FlightAware Approximate
Thu 06:44:00 PM 35.0911 -79.0294 256° West  Level FlightAware Approximate
Thu 06:45:00 PM 35.0785 -79.0917 256° West  Level FlightAware Approximate
Thu 06:46:00 PM 35.0665 -79.1541 267° West  Level FlightAware Approximate
Thu 06:47:00 PM 35.0637 -79.2181 267° West  Level FlightAware Approximate
Thu 06:48:00 PM 35.0608 -79.2822 267° West  Level FlightAware Approximate
Thu 06:49:00 PM 35.0580 -79.3462 267° West  Level FlightAware Approximate
Thu 06:50:00 PM 35.0550 -79.4102 267° West  Level FlightAware Approximate
Thu 06:51:00 PM 35.0521 -79.4743 267° West  Level FlightAware Approximate
Thu 06:52:00 PM 35.0491 -79.5383 267° West  Level FlightAware Approximate
Thu 06:53:00 PM 35.0461 -79.6023 267° West  Level FlightAware Approximate
Thu 06:54:00 PM 35.0431 -79.6664 267° West  Level FlightAware Approximate
Thu 06:55:00 PM 35.0400 -79.7304 267° West  Level FlightAware Approximate
Thu 06:56:00 PM 35.0369 -79.7944 267° West  Level FlightAware Approximate
Thu 06:57:00 PM 35.0337 -79.8584 267° West  Level FlightAware Approximate
Thu 06:58:00 PM 35.0255 -79.9217 260° West  Level FlightAware Approximate
Thu 06:59:00 PM 35.0167 -79.9849 270° West  Level FlightAware Approximate
Thu 07:00:00 PM 35.0167 -80.0490 270° West  Level FlightAware Approximate
Thu 07:01:00 PM 35.0167 -80.0667 270° West  Level FlightAware Approximate
Thu 07:02:00 PM 35.0206 -80.0771 270° West  Level Estimated
Thu 07:03:00 PM 35.0206 -80.0771 270° West  Level Estimated
Thu 07:04:00 PM 35.0206 -80.0771 270° West  Level Estimated
Thu 07:05:00 PM 35.0206 -80.0771 270° West  Level Estimated
Thu 07:06:00 PM 35.0206 -80.0771 270° West  Level Estimated
Thu 07:07:00 PM 35.0206 -80.0771 270° West  Level Estimated
Thu 07:08:00 PM 35.0206 -80.0771 270° West  Level Estimated
Thu 07:09:00 PM 35.0206 -80.0771 270° West  Level Estimated
Thu 07:10:00 PM 35.0206 -80.0771 270° West  Level Estimated
Thu 07:11:00 PM 35.0206 -80.0771 270° West  Level Estimated
Thu 07:12:00 PM 35.0206 -80.0771 270° West  Level Estimated
Thu 07:13:00 PM 35.0206 -80.0771 270° West  Level Estimated
Thu 07:14:00 PM 35.0206 -80.0771 270° West  Level Estimated
Thu 07:15:00 PM 35.0206 -80.0771 270° West  Level Estimated
Thu 07:16:00 PM 35.0206 -80.0771 270° West  Level Estimated
Thu 07:17:00 PM 35.0206 -80.0771 270° West  Level Estimated
Thu 07:18:00 PM 35.0206 -80.0771 270° West  Level Estimated
Thu 07:19:00 PM 35.0206 -80.0771 270° West  Level Estimated
Thu 07:20:00 PM 35.0206 -80.0771 270° West  Level Estimated
Thu 07:21:00 PM 35.0206 -80.0771 270° West  Level Estimated
Thu 07:22:00 PM 35.0206 -80.0771 270° West  Level Estimated
Thu 07:23:00 PM 35.0206 -80.0771 270° West  Level Estimated
Thu 07:24:00 PM 35.0206 -80.0771 270° West  Level Estimated
Thu 07:25:00 PM 35.0206 -80.0771 270° West  Level Estimated
Thu 07:26:00 PM 35.0206 -80.0771 270° West  Level Estimated
Thu 07:27:00 PM 35.0206 -80.0771 270° West  Level Estimated
Thu 07:28:00 PM 35.0206 -80.0771 270° West  Level Estimated
Thu 07:29:00 PM 35.0206 -80.0771 270° West  Level Estimated
Thu 07:30:00 PM 35.0206 -80.0771 270° West  Level Estimated
Thu 07:31:00 PM 35.0206 -80.0771 270° West  Level Estimated
Thu 07:32:00 PM 35.0206 -80.0771 270° West  Level Estimated
Thu 07:33:00 PM 35.0206 -80.0771 270° West  Level Estimated
Thu 07:34:00 PM 35.0206 -80.0771 270° West  Level Estimated
Thu 07:35:00 PM 35.0206 -80.0771 270° West  Level Estimated
Thu 07:36:00 PM 35.0206 -80.0771 270° West  Level Estimated
Thu 07:37:00 PM 35.0206 -80.0771 270° West  Level Estimated
Thu 07:38:00 PM 35.0206 -80.0771 270° West  Level Estimated
Thu 07:39:00 PM 35.0206 -80.0771 270° West  Level Estimated
Thu 07:40:00 PM 35.0206 -80.0771 270° West  Level Estimated
Thu 07:41:00 PM 35.0206 -80.0771 270° West  Level Estimated
Thu 07:42:00 PM 35.0206 -80.0771 270° West  Level Estimated
Thu 07:43:00 PM 35.0206 -80.0771 270° West  Level Estimated
Thu 07:44:00 PM 35.0206 -80.0771 270° West  Level Estimated
Thu 07:45:00 PM 35.0206 -80.0771 270° West  Level Estimated
Thu 07:46:00 PM 35.0206 -80.0771 270° West  Level Estimated
Thu 07:47:00 PM 35.0206 -80.0771 270° West  Level Estimated
Thu 07:48:00 PM 35.0206 -80.0771 270° West  Level Estimated
Thu 07:49:00 PM 35.0206 -80.0771 270° West  Level Estimated
Thu 07:50:00 PM 35.0206 -80.0771 270° West  Level Estimated
Thu 07:51:00 PM 35.0206 -80.0771 270° West  Level Estimated
Thu 07:52:00 PM 35.0206 -80.0771 270° West  Level Estimated
Thu 07:53:00 PM 35.0206 -80.0771 270° West  Level Estimated
Thu 07:54:00 PM 35.0206 -80.0771 270° West  Level Estimated
Thu 07:55:00 PM 35.0206 -80.0771 270° West  Level Estimated
Thu 07:56:00 PM 35.0206 -80.0771 270° West  Level Estimated
Thu 07:57:00 PM 35.0206 -80.0771 270° West  Level Estimated
Thu 07:58:00 PM 35.0206 -80.0771 270° West  Level Estimated
Thu 07:59:00 PM 35.0206 -80.0771 270° West  Level Estimated
Thu 08:00:00 PM 35.0206 -80.0771 270° West  Level Estimated
Thu 08:01:00 PM 35.0206 -80.0771 270° West  Level Estimated
Thu 08:02:00 PM 35.0206 -80.0771 270° West  Level Estimated
Thu 08:03:00 PM 35.0206 -80.0771 270° West  Level Estimated
Thu 08:04:00 PM 35.0206 -80.0771 270° West  Level Estimated
Thu 08:05:00 PM 35.0206 -80.0771 270° West  Level Estimated
Thu 08:06:00 PM 35.0206 -80.0771 270° West  Level Estimated
Thu 08:07:00 PM 35.0206 -80.0771 270° West  Level Estimated
Thu 08:08:00 PM 35.0206 -80.0771 270° West  Level Estimated
Thu 08:09:00 PM 35.0206 -80.0771 270° West  Level Estimated
Thu 08:10:00 PM 35.0206 -80.0771 270° West  Level Estimated
Thu 08:11:00 PM 35.0206 -80.0771 270° West  Level Estimated

Login

Don't have an account? Register now (free) for customized features, flight alerts, and more!